Welcome, MN

4:38 PM CDT on September 01, 2015 (GMT -0500)
NuWay Coop - Welcome | | Change Station
CLOSE
Current Station
Personal Weather Station
Location: Welcome, MN
Elevation: 1224 ft
Nearby Weather Stations

Elev 1224 ft 43.67 °N, 94.61 °W | Updated 3 minutes ago

Partly Cloudy
Partly Cloudy
82.4 °F
Feels Like 88 °F
N
3.0
Wind Variable Wind from South
Gusts 11.0 mph

Today
High -- | Low -- °F
--% Chance of Precip.
Yesterday
High -- | Low -- °F
Precip. -- in
6:41 AM 7:54 PM
Waning Gibbous, 86% visible
Pressure 29.90 in
Visibility 10.0 miles
Clouds Clear
Heat Index 88 °F
Dew Point 74 °F
Humidity 75%
Rainfall 0.00 in
Snow Depth Not available.
UV 4 out of 12
Pollen 10.10 out of 12
Air Quality Not available.
Flu Activity Not available.
METAR KFRM 012135Z AUTO 19008KT 10SM CLR 28/20 A2990 RMK AO1
Pressure 29.90 in
Visibility 10.0 miles
Clouds Clear
Heat Index 88 °F
Dew Point 74 °F
Humidity 75%
Rainfall 0.00 in
Snow Depth Not available.
UV 4 out of 12
Pollen 10.10 out of 12
Air Quality Not available.
Flu Activity Not available.
METAR KFRM 012135Z AUTO 19008KT 10SM CLR 28/20 A2990 RMK AO1

10-Day Weather Forecast

×

Almanac

Astronomy

Sep. 01, 2015 Rise Set
Actual Time
Civil Twilight
Nautical Twilight
Astronomical Twilight
Moon
Length of Visible Light
Length of Day
Tomorrow will be .
, % of the Moon is Illuminated

Today's Extremes

State Highs State Lows

Community

WunderPhotos

Upload Photos

1,851,628 photos uploaded!

WunderBlogs® & News

Nearby

Air Quality

  Air Quality AQ Index Pollutant
Not available.

Snow Depth

Station Depth Elevation

Earthquake Activity

City Distance Mag. Time & Date
Minimum magnitude displayed is 2.5.

Coastal Water Temperatures

Place Temperature

Stations

Nearby Weather Stations

Station Location Temp. Windchill Dew Point Humidity Wind Precip. Elev Updated Type